RJA262 LOWI-LCLK
Flight info
| Callsign | RJA262 |
|---|---|
| Flight time | N/A |
| Altitude | 37000 |
| Route | LOWI/26 DCT KOGOL M726 MAH DCT LATLO DCT OBEDI DCT PODET DCT SOMUN |
| Aircraft | A20N/M-DGV/A |
Departure
| Time | N/A |
|---|---|
| Airport | Innsbruck Airport (LOWI) |
Arrival
| Time | 2026-04-29 08:26 |
|---|---|
| Airport | Larnaca International Airport (LCLK) |
| Time | Latitude | Longitude | Altitude | Speed | Heading |
|---|---|---|---|---|---|
| 2026-04-29 06:57 | 41.26788 | 24.88163 | 37121 ft | 499 kts | 140° |
| 2026-04-29 06:58 | 41.21622 | 24.94251 | 37124 ft | 499 kts | 140° |
| 2026-04-29 06:58 | 41.16351 | 25.00451 | 37134 ft | 499 kts | 140° |
| 2026-04-29 06:59 | 41.11159 | 25.06535 | 37139 ft | 499 kts | 140° |
| 2026-04-29 06:59 | 41.06008 | 25.12571 | 37138 ft | 499 kts | 140° |
| 2026-04-29 07:00 | 41.00829 | 25.18617 | 37142 ft | 498 kts | 140° |
| 2026-04-29 07:00 | 40.95770 | 25.24514 | 37132 ft | 498 kts | 140° |
| 2026-04-29 07:01 | 40.90590 | 25.30535 | 37135 ft | 498 kts | 140° |
| 2026-04-29 07:01 | 40.85404 | 25.36554 | 37130 ft | 498 kts | 140° |
| 2026-04-29 07:02 | 40.80312 | 25.42537 | 37130 ft | 498 kts | 137° |
| 2026-04-29 07:02 | 40.75569 | 25.49170 | 37131 ft | 499 kts | 131° |
| 2026-04-29 07:03 | 40.71057 | 25.56135 | 37130 ft | 498 kts | 131° |
| 2026-04-29 07:03 | 40.66566 | 25.63052 | 37134 ft | 499 kts | 131° |
| 2026-04-29 07:04 | 40.62126 | 25.69834 | 37135 ft | 499 kts | 132° |
| 2026-04-29 07:04 | 40.57577 | 25.76772 | 37133 ft | 499 kts | 132° |
| 2026-04-29 07:05 | 40.53043 | 25.83667 | 37126 ft | 498 kts | 132° |
| 2026-04-29 07:05 | 40.48523 | 25.90511 | 37133 ft | 498 kts | 132° |
| 2026-04-29 07:06 | 40.43910 | 25.97414 | 37128 ft | 497 kts | 132° |
| 2026-04-29 07:06 | 40.39259 | 26.04346 | 37136 ft | 497 kts | 132° |
| 2026-04-29 07:07 | 40.34687 | 26.11160 | 37129 ft | 497 kts | 132° |
| 2026-04-29 07:07 | 40.30122 | 26.17953 | 37122 ft | 495 kts | 132° |
| 2026-04-29 07:08 | 40.25611 | 26.24640 | 37130 ft | 479 kts | 132° |
| 2026-04-29 07:08 | 40.21239 | 26.31120 | 37135 ft | 464 kts | 133° |
| 2026-04-29 07:09 | 40.16891 | 26.37532 | 37126 ft | 470 kts | 132° |
| 2026-04-29 07:09 | 40.12531 | 26.43802 | 37126 ft | 479 kts | 136° |
| 2026-04-29 07:10 | 40.07767 | 26.49955 | 37128 ft | 488 kts | 136° |
| 2026-04-29 07:10 | 40.02890 | 26.56192 | 37128 ft | 494 kts | 136° |
| 2026-04-29 07:11 | 39.98025 | 26.62420 | 37121 ft | 494 kts | 136° |
| 2026-04-29 07:11 | 39.93102 | 26.68715 | 37115 ft | 494 kts | 137° |
| 2026-04-29 07:12 | 39.88235 | 26.74938 | 37114 ft | 494 kts | 136° |
| 2026-04-29 07:12 | 39.83319 | 26.81197 | 37124 ft | 494 kts | 137° |
| 2026-04-29 07:13 | 39.78401 | 26.87445 | 37117 ft | 494 kts | 138° |
| 2026-04-29 07:13 | 39.75770 | 26.90194 | 37113 ft | 491 kts | 149° |
| 2026-04-29 07:13 | 39.72789 | 26.92402 | 37132 ft | 491 kts | 155° |
| 2026-04-29 07:14 | 39.66714 | 26.96344 | 37123 ft | 489 kts | 159° |
| 2026-04-29 07:14 | 39.63504 | 26.97749 | 37117 ft | 483 kts | 171° |
| 2026-04-29 07:14 | 39.60223 | 26.98290 | 37121 ft | 476 kts | 182° |
| 2026-04-29 07:15 | 39.53616 | 26.99337 | 37121 ft | 484 kts | 168° |
| 2026-04-29 07:15 | 39.47227 | 27.02293 | 37124 ft | 487 kts | 161° |
| 2026-04-29 07:16 | 39.41326 | 27.06553 | 37111 ft | 494 kts | 141° |
| 2026-04-29 07:16 | 39.38954 | 27.09709 | 37127 ft | 495 kts | 128° |
| 2026-04-29 07:16 | 39.37090 | 27.13413 | 37120 ft | 495 kts | 116° |
| 2026-04-29 07:17 | 39.34701 | 27.21739 | 37117 ft | 493 kts | 106° |
| 2026-04-29 07:17 | 39.32717 | 27.30145 | 37125 ft | 493 kts | 105° |
| 2026-04-29 07:18 | 39.30723 | 27.38629 | 37117 ft | 493 kts | 105° |
| 2026-04-29 07:18 | 39.28743 | 27.47039 | 37119 ft | 493 kts | 105° |
| 2026-04-29 07:19 | 39.26760 | 27.55518 | 37113 ft | 493 kts | 105° |
| 2026-04-29 07:19 | 39.24795 | 27.63905 | 37108 ft | 493 kts | 105° |
| 2026-04-29 07:20 | 39.22061 | 27.71985 | 37108 ft | 494 kts | 124° |
| 2026-04-29 07:20 | 39.19954 | 27.75443 | 37105 ft | 493 kts | 135° |
| 2026-04-29 07:20 | 39.17491 | 27.78478 | 37114 ft | 492 kts | 140° |
| 2026-04-29 07:21 | 39.12322 | 27.84264 | 37103 ft | 493 kts | 140° |
| 2026-04-29 07:21 | 39.07212 | 27.90179 | 37104 ft | 493 kts | 138° |
| 2026-04-29 07:22 | 39.02294 | 27.96288 | 37106 ft | 494 kts | 133° |
| 2026-04-29 07:22 | 38.97844 | 28.03040 | 37104 ft | 494 kts | 130° |
| 2026-04-29 07:23 | 38.93473 | 28.09805 | 37105 ft | 493 kts | 130° |
| 2026-04-29 07:23 | 38.89080 | 28.16544 | 37086 ft | 492 kts | 131° |
| 2026-04-29 07:24 | 38.84769 | 28.23148 | 37111 ft | 493 kts | 131° |
| 2026-04-29 07:24 | 38.80343 | 28.29844 | 37094 ft | 493 kts | 131° |
| 2026-04-29 07:25 | 38.75928 | 28.36529 | 37091 ft | 493 kts | 129° |
| 2026-04-29 07:25 | 38.71492 | 28.43235 | 37095 ft | 493 kts | 130° |
| 2026-04-29 07:26 | 38.67059 | 28.49926 | 37078 ft | 493 kts | 131° |
| 2026-04-29 07:26 | 38.62663 | 28.56545 | 37090 ft | 493 kts | 131° |
| 2026-04-29 07:27 | 38.57908 | 28.62849 | 37080 ft | 492 kts | 139° |
| 2026-04-29 07:27 | 38.53524 | 28.67493 | 37094 ft | 491 kts | 145° |
| 2026-04-29 07:28 | 38.47034 | 28.73304 | 37076 ft | 492 kts | 147° |
| 2026-04-29 07:28 | 38.41443 | 28.78268 | 37079 ft | 492 kts | 147° |
| 2026-04-29 07:29 | 38.35843 | 28.83252 | 37084 ft | 491 kts | 147° |
| 2026-04-29 07:29 | 38.30256 | 28.88229 | 37087 ft | 491 kts | 147° |
| 2026-04-29 07:30 | 38.24843 | 28.93045 | 37078 ft | 491 kts | 147° |
| 2026-04-29 07:30 | 38.19236 | 28.98020 | 37076 ft | 491 kts | 147° |
| 2026-04-29 07:31 | 38.10810 | 29.05488 | 37081 ft | 492 kts | 147° |
| 2026-04-29 07:31 | 38.05209 | 29.10421 | 37070 ft | 492 kts | 147° |
| 2026-04-29 07:32 | 37.99587 | 29.15381 | 37076 ft | 492 kts | 147° |
| 2026-04-29 07:32 | 37.94006 | 29.20297 | 37078 ft | 492 kts | 147° |
| 2026-04-29 07:33 | 37.88370 | 29.25243 | 37069 ft | 492 kts | 147° |
| 2026-04-29 07:33 | 37.82727 | 29.30189 | 37084 ft | 492 kts | 147° |
| 2026-04-29 07:34 | 37.77105 | 29.35108 | 37088 ft | 492 kts | 147° |
| 2026-04-29 07:34 | 37.71514 | 29.39990 | 37085 ft | 492 kts | 146° |
| 2026-04-29 07:35 | 37.65889 | 29.44896 | 37091 ft | 493 kts | 147° |
| 2026-04-29 07:35 | 37.60254 | 29.49803 | 37095 ft | 492 kts | 146° |
| 2026-04-29 07:36 | 37.54598 | 29.54713 | 37097 ft | 492 kts | 147° |
| 2026-04-29 07:36 | 37.48978 | 29.59590 | 37097 ft | 492 kts | 147° |
| 2026-04-29 07:37 | 37.43350 | 29.64463 | 37104 ft | 493 kts | 146° |
| 2026-04-29 07:37 | 37.37718 | 29.69330 | 37109 ft | 493 kts | 147° |
| 2026-04-29 07:38 | 37.32078 | 29.74193 | 37113 ft | 493 kts | 148° |
| 2026-04-29 07:38 | 37.26410 | 29.79079 | 37113 ft | 493 kts | 148° |
| 2026-04-29 07:39 | 37.20836 | 29.83871 | 37118 ft | 493 kts | 147° |
| 2026-04-29 07:39 | 37.15208 | 29.88709 | 37118 ft | 494 kts | 147° |
| 2026-04-29 07:40 | 37.09534 | 29.93575 | 37135 ft | 494 kts | 147° |
| 2026-04-29 07:40 | 37.03886 | 29.98410 | 37129 ft | 494 kts | 147° |
| 2026-04-29 07:41 | 36.98243 | 30.03242 | 37139 ft | 494 kts | 147° |
| 2026-04-29 07:41 | 36.92579 | 30.08077 | 37128 ft | 494 kts | 146° |
| 2026-04-29 07:42 | 36.86806 | 30.13003 | 37125 ft | 494 kts | 147° |
| 2026-04-29 07:42 | 36.80927 | 30.17997 | 37125 ft | 494 kts | 147° |
| 2026-04-29 07:43 | 36.75129 | 30.22909 | 37113 ft | 494 kts | 146° |
| 2026-04-29 07:43 | 36.69419 | 30.27739 | 37111 ft | 494 kts | 147° |
| 2026-04-29 07:44 | 36.63727 | 30.32538 | 37086 ft | 494 kts | 147° |
| 2026-04-29 07:44 | 36.58012 | 30.37362 | 37074 ft | 494 kts | 147° |
| 2026-04-29 07:45 | 36.52397 | 30.42081 | 37027 ft | 494 kts | 146° |
| 2026-04-29 07:45 | 36.46652 | 30.46911 | 36993 ft | 494 kts | 146° |
| 2026-04-29 07:46 | 36.40965 | 30.51679 | 36979 ft | 494 kts | 147° |
| 2026-04-29 07:46 | 36.35291 | 30.56425 | 36988 ft | 494 kts | 147° |
| 2026-04-29 07:47 | 36.29593 | 30.61188 | 36978 ft | 494 kts | 147° |
| 2026-04-29 07:47 | 36.23907 | 30.65927 | 36970 ft | 495 kts | 147° |
| 2026-04-29 07:48 | 36.18199 | 30.70684 | 36975 ft | 495 kts | 148° |
| 2026-04-29 07:48 | 36.12496 | 30.75414 | 36975 ft | 495 kts | 148° |
| 2026-04-29 07:49 | 36.06454 | 30.79505 | 36982 ft | 494 kts | 159° |
| 2026-04-29 07:49 | 35.99962 | 30.82098 | 36975 ft | 490 kts | 171° |
| 2026-04-29 07:50 | 35.93263 | 30.83179 | 36978 ft | 485 kts | 181° |
| 2026-04-29 07:50 | 35.86542 | 30.83528 | 36981 ft | 485 kts | 182° |
| 2026-04-29 07:51 | 35.79792 | 30.83895 | 36984 ft | 486 kts | 181° |
| 2026-04-29 07:51 | 35.73018 | 30.84329 | 36988 ft | 488 kts | 178° |
| 2026-04-29 07:52 | 35.69690 | 30.85083 | 36962 ft | 493 kts | 166° |
| 2026-04-29 07:52 | 35.66498 | 30.86648 | 36986 ft | 498 kts | 154° |
| 2026-04-29 07:52 | 35.63607 | 30.88964 | 36982 ft | 498 kts | 142° |
| 2026-04-29 07:52 | 35.61155 | 30.91908 | 36982 ft | 498 kts | 129° |
| 2026-04-29 07:53 | 35.59190 | 30.95433 | 36986 ft | 497 kts | 117° |
| 2026-04-29 07:53 | 35.57848 | 30.99274 | 36991 ft | 494 kts | 106° |
| 2026-04-29 07:53 | 35.55859 | 31.07369 | 36990 ft | 494 kts | 104° |
| 2026-04-29 07:54 | 35.54902 | 31.11351 | 36993 ft | 482 kts | 104° |
| 2026-04-29 07:54 | 35.53953 | 31.15218 | 36995 ft | 465 kts | 105° |
| 2026-04-29 07:54 | 35.53024 | 31.18944 | 36996 ft | 449 kts | 105° |
| 2026-04-29 07:54 | 35.52115 | 31.22539 | 37001 ft | 441 kts | 105° |
| 2026-04-29 07:55 | 35.50293 | 31.29709 | 36914 ft | 441 kts | 105° |
| 2026-04-29 07:55 | 35.49392 | 31.33233 | 36669 ft | 438 kts | 105° |
| 2026-04-29 07:55 | 35.48483 | 31.36774 | 36411 ft | 434 kts | 104° |
| 2026-04-29 07:56 | 35.47574 | 31.40305 | 36169 ft | 431 kts | 104° |
| 2026-04-29 07:56 | 35.46688 | 31.43754 | 35949 ft | 428 kts | 105° |
| 2026-04-29 07:56 | 35.45793 | 31.47209 | 35700 ft | 425 kts | 105° |
| 2026-04-29 07:56 | 35.44902 | 31.50643 | 35352 ft | 423 kts | 104° |
| 2026-04-29 07:57 | 35.44016 | 31.54077 | 34925 ft | 423 kts | 104° |
| 2026-04-29 07:57 | 35.43131 | 31.57504 | 34430 ft | 426 kts | 103° |
| 2026-04-29 07:57 | 35.42237 | 31.60963 | 33785 ft | 429 kts | 104° |
| 2026-04-29 07:57 | 35.41328 | 31.64459 | 33113 ft | 430 kts | 104° |
| 2026-04-29 07:58 | 35.40427 | 31.67930 | 32471 ft | 427 kts | 104° |
| 2026-04-29 07:58 | 35.39529 | 31.71390 | 31847 ft | 423 kts | 105° |
| 2026-04-29 07:58 | 35.38649 | 31.74767 | 31226 ft | 419 kts | 104° |
| 2026-04-29 07:58 | 35.37763 | 31.78157 | 30579 ft | 415 kts | 104° |
| 2026-04-29 07:59 | 35.36891 | 31.81490 | 29945 ft | 411 kts | 104° |
| 2026-04-29 07:59 | 35.36057 | 31.84691 | 29323 ft | 407 kts | 104° |
| 2026-04-29 07:59 | 35.35189 | 31.88010 | 28616 ft | 405 kts | 104° |
| 2026-04-29 07:59 | 35.34337 | 31.91254 | 28055 ft | 398 kts | 104° |
| 2026-04-29 08:00 | 35.33509 | 31.94408 | 27676 ft | 387 kts | 104° |
| 2026-04-29 08:00 | 35.32701 | 31.97486 | 27280 ft | 377 kts | 104° |
| 2026-04-29 08:00 | 35.31908 | 32.00505 | 26871 ft | 369 kts | 105° |
| 2026-04-29 08:00 | 35.31131 | 32.03449 | 26464 ft | 361 kts | 105° |
| 2026-04-29 08:01 | 35.30367 | 32.06340 | 26052 ft | 353 kts | 104° |
| 2026-04-29 08:01 | 35.29635 | 32.09147 | 25642 ft | 346 kts | 104° |
| 2026-04-29 08:01 | 35.28914 | 32.11919 | 25248 ft | 339 kts | 105° |
| 2026-04-29 08:01 | 35.28205 | 32.14646 | 24854 ft | 333 kts | 105° |
| 2026-04-29 08:02 | 35.27511 | 32.17308 | 24454 ft | 327 kts | 105° |
| 2026-04-29 08:02 | 35.26823 | 32.19915 | 24072 ft | 320 kts | 105° |
| 2026-04-29 08:02 | 35.26156 | 32.22451 | 23692 ft | 315 kts | 105° |
| 2026-04-29 08:02 | 35.25504 | 32.24943 | 23322 ft | 309 kts | 105° |
| 2026-04-29 08:03 | 35.24852 | 32.27439 | 22937 ft | 308 kts | 105° |
| 2026-04-29 08:03 | 35.24203 | 32.29901 | 22543 ft | 306 kts | 105° |
| 2026-04-29 08:03 | 35.23564 | 32.32312 | 22143 ft | 305 kts | 105° |
| 2026-04-29 08:03 | 35.22917 | 32.34779 | 21734 ft | 304 kts | 106° |
| 2026-04-29 08:04 | 35.22279 | 32.37209 | 21327 ft | 304 kts | 105° |
| 2026-04-29 08:04 | 35.21630 | 32.39695 | 20927 ft | 303 kts | 105° |
| 2026-04-29 08:04 | 35.21012 | 32.42046 | 20564 ft | 303 kts | 106° |
| 2026-04-29 08:04 | 35.20363 | 32.44501 | 20165 ft | 303 kts | 107° |
| 2026-04-29 08:05 | 35.19707 | 32.46958 | 19761 ft | 302 kts | 105° |
| 2026-04-29 08:05 | 35.19058 | 32.49422 | 19351 ft | 302 kts | 107° |
| 2026-04-29 08:05 | 35.18392 | 32.51939 | 18929 ft | 302 kts | 106° |
| 2026-04-29 08:05 | 35.17725 | 32.54464 | 18505 ft | 302 kts | 107° |
| 2026-04-29 08:06 | 35.17047 | 32.56990 | 18094 ft | 302 kts | 106° |
| 2026-04-29 08:06 | 35.16378 | 32.59508 | 17679 ft | 302 kts | 106° |
| 2026-04-29 08:06 | 35.15700 | 32.62063 | 17232 ft | 303 kts | 106° |
| 2026-04-29 08:06 | 35.15029 | 32.64574 | 16841 ft | 303 kts | 107° |
| 2026-04-29 08:07 | 35.14371 | 32.67036 | 16433 ft | 302 kts | 107° |
| 2026-04-29 08:07 | 35.13712 | 32.69503 | 16045 ft | 301 kts | 107° |
| 2026-04-29 08:07 | 35.13062 | 32.71945 | 15660 ft | 300 kts | 107° |
| 2026-04-29 08:07 | 35.12418 | 32.74372 | 15262 ft | 300 kts | 107° |
| 2026-04-29 08:08 | 35.11775 | 32.76765 | 14867 ft | 299 kts | 107° |
| 2026-04-29 08:08 | 35.11125 | 32.79182 | 14476 ft | 298 kts | 107° |
| 2026-04-29 08:08 | 35.10486 | 32.81583 | 14078 ft | 298 kts | 107° |
| 2026-04-29 08:08 | 35.09846 | 32.83982 | 13695 ft | 298 kts | 107° |
| 2026-04-29 08:09 | 35.09193 | 32.86402 | 13292 ft | 297 kts | 108° |
| 2026-04-29 08:09 | 35.08542 | 32.88820 | 12871 ft | 296 kts | 107° |
| 2026-04-29 08:09 | 35.07905 | 32.91198 | 12481 ft | 296 kts | 107° |
| 2026-04-29 08:09 | 35.07262 | 32.93579 | 12067 ft | 296 kts | 108° |
| 2026-04-29 08:10 | 35.06595 | 32.95956 | 11671 ft | 295 kts | 108° |
| 2026-04-29 08:10 | 35.05918 | 32.98309 | 11269 ft | 294 kts | 109° |
| 2026-04-29 08:10 | 35.05246 | 33.00632 | 11034 ft | 287 kts | 109° |
| 2026-04-29 08:10 | 35.04590 | 33.02886 | 10855 ft | 278 kts | 108° |
| 2026-04-29 08:11 | 35.03978 | 33.05047 | 10691 ft | 269 kts | 107° |
| 2026-04-29 08:11 | 35.03378 | 33.07200 | 10521 ft | 261 kts | 107° |
| 2026-04-29 08:11 | 35.02783 | 33.09243 | 10379 ft | 251 kts | 109° |
| 2026-04-29 08:11 | 35.02209 | 33.11185 | 10257 ft | 242 kts | 109° |
| 2026-04-29 08:12 | 35.01652 | 33.13103 | 10134 ft | 240 kts | 109° |
| 2026-04-29 08:12 | 35.01096 | 33.15022 | 9975 ft | 242 kts | 108° |
| 2026-04-29 08:12 | 35.00567 | 33.16872 | 9667 ft | 242 kts | 108° |
| 2026-04-29 08:12 | 35.00018 | 33.18764 | 9377 ft | 240 kts | 109° |
| 2026-04-29 08:13 | 34.99482 | 33.20610 | 9084 ft | 240 kts | 109° |
| 2026-04-29 08:13 | 34.98948 | 33.22464 | 8784 ft | 239 kts | 108° |
| 2026-04-29 08:13 | 34.98422 | 33.24289 | 8508 ft | 238 kts | 110° |
| 2026-04-29 08:13 | 34.97892 | 33.26107 | 8233 ft | 236 kts | 109° |
| 2026-04-29 08:14 | 34.97358 | 33.27966 | 7953 ft | 235 kts | 109° |
| 2026-04-29 08:14 | 34.96824 | 33.29818 | 7676 ft | 233 kts | 110° |
| 2026-04-29 08:14 | 34.96291 | 33.31639 | 7393 ft | 231 kts | 109° |
| 2026-04-29 08:14 | 34.95763 | 33.33456 | 7112 ft | 230 kts | 109° |
| 2026-04-29 08:15 | 34.95238 | 33.35262 | 6840 ft | 228 kts | 110° |
| 2026-04-29 08:15 | 34.94706 | 33.37077 | 6565 ft | 228 kts | 109° |
| 2026-04-29 08:15 | 34.94183 | 33.38882 | 6286 ft | 228 kts | 109° |
| 2026-04-29 08:15 | 34.93674 | 33.40638 | 6019 ft | 227 kts | 108° |
| 2026-04-29 08:16 | 34.93161 | 33.42394 | 5750 ft | 226 kts | 110° |
| 2026-04-29 08:16 | 34.92654 | 33.44131 | 5480 ft | 225 kts | 109° |
| 2026-04-29 08:16 | 34.92143 | 33.45896 | 5202 ft | 224 kts | 110° |
| 2026-04-29 08:16 | 34.91640 | 33.47620 | 4926 ft | 223 kts | 109° |
| 2026-04-29 08:17 | 34.91133 | 33.49359 | 4651 ft | 223 kts | 110° |
| 2026-04-29 08:17 | 34.90634 | 33.51054 | 4386 ft | 223 kts | 109° |
| 2026-04-29 08:17 | 34.90121 | 33.52814 | 4335 ft | 223 kts | 109° |
| 2026-04-29 08:17 | 34.89626 | 33.54505 | 4307 ft | 224 kts | 109° |
| 2026-04-29 08:18 | 34.89121 | 33.56225 | 4274 ft | 224 kts | 109° |
| 2026-04-29 08:18 | 34.88623 | 33.57930 | 4238 ft | 224 kts | 108° |
| 2026-04-29 08:18 | 34.88067 | 33.59771 | 4198 ft | 225 kts | 110° |
| 2026-04-29 08:18 | 34.87513 | 33.61549 | 4167 ft | 225 kts | 109° |
| 2026-04-29 08:19 | 34.87047 | 33.63362 | 4015 ft | 226 kts | 95° |
| 2026-04-29 08:19 | 34.87326 | 33.65222 | 3619 ft | 228 kts | 62° |
| 2026-04-29 08:19 | 34.88291 | 33.66732 | 3299 ft | 226 kts | 34° |
| 2026-04-29 08:19 | 34.89600 | 33.67727 | 3168 ft | 216 kts | 42° |
| 2026-04-29 08:20 | 34.90458 | 33.69212 | 2894 ft | 215 kts | 66° |
| 2026-04-29 08:20 | 34.90850 | 33.70940 | 2583 ft | 216 kts | 80° |
| 2026-04-29 08:20 | 34.90995 | 33.72763 | 2254 ft | 217 kts | 80° |
| 2026-04-29 08:20 | 34.91465 | 33.74482 | 2065 ft | 209 kts | 63° |
| 2026-04-29 08:21 | 34.92112 | 33.75994 | 2033 ft | 193 kts | 61° |
| 2026-04-29 08:21 | 34.92757 | 33.77364 | 1895 ft | 181 kts | 59° |
| 2026-04-29 08:21 | 34.93396 | 33.78630 | 1748 ft | 171 kts | 53° |
| 2026-04-29 08:21 | 34.94300 | 33.79416 | 1579 ft | 157 kts | 4° |
| 2026-04-29 08:22 | 34.95195 | 33.78881 | 1405 ft | 147 kts | 300° |
| 2026-04-29 08:22 | 34.95236 | 33.77673 | 1477 ft | 149 kts | 245° |
| 2026-04-29 08:22 | 34.94745 | 33.76539 | 1627 ft | 150 kts | 243° |
| 2026-04-29 08:22 | 34.94406 | 33.75333 | 1674 ft | 149 kts | 258° |
| 2026-04-29 08:23 | 34.94168 | 33.74152 | 1682 ft | 141 kts | 250° |
| 2026-04-29 08:23 | 34.93838 | 33.73053 | 1571 ft | 137 kts | 249° |
| 2026-04-29 08:23 | 34.93533 | 33.71962 | 1433 ft | 136 kts | 256° |
| 2026-04-29 08:23 | 34.93295 | 33.70846 | 1351 ft | 135 kts | 257° |
| 2026-04-29 08:24 | 34.93144 | 33.69711 | 1216 ft | 135 kts | 261° |
| 2026-04-29 08:24 | 34.93029 | 33.68584 | 1100 ft | 135 kts | 262° |
| 2026-04-29 08:24 | 34.92778 | 33.67497 | 1015 ft | 135 kts | 240° |
| 2026-04-29 08:24 | 34.92158 | 33.66661 | 887 ft | 134 kts | 212° |
| 2026-04-29 08:25 | 34.91335 | 33.66139 | 698 ft | 134 kts | 201° |
| 2026-04-29 08:25 | 34.90470 | 33.65689 | 475 ft | 133 kts | 206° |
| 2026-04-29 08:25 | 34.89679 | 33.65152 | 334 ft | 133 kts | 213° |
| 2026-04-29 08:25 | 34.89025 | 33.64413 | 230 ft | 135 kts | 224° |
| 2026-04-29 08:26 | 34.88449 | 33.63644 | 180 ft | 136 kts | 218° |
| 2026-04-29 08:26 | 34.87770 | 33.62870 | 25 ft | 131 kts | 219° |
| 2026-04-29 08:26 | 34.87260 | 33.62270 | 14 ft | 70 kts | 219° |
| 2026-04-29 08:26 | 34.87062 | 33.62010 | 13 ft | 28 kts | 227° |
| 2026-04-29 08:27 | 34.86972 | 33.61809 | 14 ft | 25 kts | 254° |
| 2026-04-29 08:27 | 34.86944 | 33.61670 | 16 ft | 14 kts | 256° |
| 2026-04-29 08:27 | 34.86918 | 33.61550 | 18 ft | 13 kts | 256° |
| 2026-04-29 08:27 | 34.86892 | 33.61452 | 22 ft | 10 kts | 246° |
| 2026-04-29 08:28 | 34.86895 | 33.61371 | 24 ft | 9 kts | 306° |
| 2026-04-29 08:28 | 34.86936 | 33.61316 | 26 ft | 8 kts | 316° |
| 2026-04-29 08:28 | 34.86956 | 33.61282 | 27 ft | 3 kts | 281° |
| 2026-04-29 08:28 | 34.86958 | 33.61264 | 28 ft | 1 kts | 276° |
| 2026-04-29 08:29 | 34.86959 | 33.61261 | 28 ft | 2 kts | 274° |
| 2026-04-29 08:29 | 34.86956 | 33.61232 | 29 ft | 0 kts | 261° |
| 2026-04-29 08:29 | 34.86954 | 33.61179 | 32 ft | 8 kts | 269° |
| 2026-04-29 08:29 | 34.86948 | 33.61151 | 32 ft | 0 kts | 234° |
| 2026-04-29 08:30 | 34.86946 | 33.61148 | 32 ft | 0 kts | 242° |
| 2026-04-29 08:30 | 34.86943 | 33.61140 | 32 ft | 0 kts | 234° |